sensor_id;sensor_type;location;lat;lon;timestamp;temperature;humidity
22716;DHT22;11525;51.152;4.456;2023-06-22T00:00:30;20.80;99.90
22716;DHT22;11525;51.152;4.456;2023-06-22T00:02:55;20.80;99.90
22716;DHT22;11525;51.152;4.456;2023-06-22T00:05:21;20.70;99.90
22716;DHT22;11525;51.152;4.456;2023-06-22T00:07:47;20.50;99.90
22716;DHT22;11525;51.152;4.456;2023-06-22T00:10:13;20.40;99.90
22716;DHT22;11525;51.152;4.456;2023-06-22T00:12:39;20.60;99.90
22716;DHT22;11525;51.152;4.456;2023-06-22T00:15:05;20.60;99.90
22716;DHT22;11525;51.152;4.456;2023-06-22T00:17:31;20.60;99.90
22716;DHT22;11525;51.152;4.456;2023-06-22T00:19:56;20.50;99.90
22716;DHT22;11525;51.152;4.456;2023-06-22T00:22:25;20.40;99.90
22716;DHT22;11525;51.152;4.456;2023-06-22T00:24:55;20.40;99.90
22716;DHT22;11525;51.152;4.456;2023-06-22T00:27:21;20.30;99.90
22716;DHT22;11525;51.152;4.456;2023-06-22T00:29:46;20.20;99.90
22716;DHT22;11525;51.152;4.456;2023-06-22T00:32:12;20.20;99.90
22716;DHT22;11525;51.152;4.456;2023-06-22T00:34:38;20.20;99.90
22716;DHT22;11525;51.152;4.456;2023-06-22T00:37:06;20.30;99.90
22716;DHT22;11525;51.152;4.456;2023-06-22T00:39:32;20.20;99.90
22716;DHT22;11525;51.152;4.456;2023-06-22T00:42:01;20.10;99.90
22716;DHT22;11525;51.152;4.456;2023-06-22T00:44:27;20.00;99.90
22716;DHT22;11525;51.152;4.456;2023-06-22T00:46:53;20.00;99.90
22716;DHT22;11525;51.152;4.456;2023-06-22T00:49:19;20.20;99.90
22716;DHT22;11525;51.152;4.456;2023-06-22T00:51:45;20.10;99.90
22716;DHT22;11525;51.152;4.456;2023-06-22T00:54:11;20.10;99.90
22716;DHT22;11525;51.152;4.456;2023-06-22T00:56:39;20.00;99.90
22716;DHT22;11525;51.152;4.456;2023-06-22T00:59:06;20.00;99.90
22716;DHT22;11525;51.152;4.456;2023-06-22T01:01:32;19.90;99.90
22716;DHT22;11525;51.152;4.456;2023-06-22T01:03:59;19.80;99.90
22716;DHT22;11525;51.152;4.456;2023-06-22T01:06:31;19.70;99.90
22716;DHT22;11525;51.152;4.456;2023-06-22T01:09:12;19.80;99.90
22716;DHT22;11525;51.152;4.456;2023-06-22T01:11:48;19.80;99.90
22716;DHT22;11525;51.152;4.456;2023-06-22T01:14:24;19.80;99.90
22716;DHT22;11525;51.152;4.456;2023-06-22T01:16:54;19.70;99.90
22716;DHT22;11525;51.152;4.456;2023-06-22T01:22:02;19.70;99.90
22716;DHT22;11525;51.152;4.456;2023-06-22T01:25:02;19.70;99.90
22716;DHT22;11525;51.152;4.456;2023-06-22T01:30:07;19.80;99.90
22716;DHT22;11525;51.152;4.456;2023-06-22T01:32:38;19.80;99.90
22716;DHT22;11525;51.152;4.456;2023-06-22T01:35:06;19.90;99.90
22716;DHT22;11525;51.152;4.456;2023-06-22T01:37:34;19.80;99.90
22716;DHT22;11525;51.152;4.456;2023-06-22T01:40:01;19.70;99.90
22716;DHT22;11525;51.152;4.456;2023-06-22T01:42:27;19.80;99.90
22716;DHT22;11525;51.152;4.456;2023-06-22T01:44:56;19.70;99.90
22716;DHT22;11525;51.152;4.456;2023-06-22T01:47:23;19.80;99.90
22716;DHT22;11525;51.152;4.456;2023-06-22T01:49:50;19.80;99.90
22716;DHT22;11525;51.152;4.456;2023-06-22T01:52:20;19.90;99.90
22716;DHT22;11525;51.152;4.456;2023-06-22T01:54:47;19.90;99.90
22716;DHT22;11525;51.152;4.456;2023-06-22T01:57:13;19.80;99.90
22716;DHT22;11525;51.152;4.456;2023-06-22T01:59:58;19.80;99.90
22716;DHT22;11525;51.152;4.456;2023-06-22T02:02:28;19.80;99.90
22716;DHT22;11525;51.152;4.456;2023-06-22T02:05:07;19.90;99.90
22716;DHT22;11525;51.152;4.456;2023-06-22T02:07:47;19.80;99.90
22716;DHT22;11525;51.152;4.456;2023-06-22T02:10:16;19.80;99.90
22716;DHT22;11525;51.152;4.456;2023-06-22T02:12:44;19.70;99.90
22716;DHT22;11525;51.152;4.456;2023-06-22T02:15:11;19.70;99.90
22716;DHT22;11525;51.152;4.456;2023-06-22T02:17:38;19.70;99.90
22716;DHT22;11525;51.152;4.456;2023-06-22T02:20:04;19.70;99.90
22716;DHT22;11525;51.152;4.456;2023-06-22T02:22:34;19.70;99.90
22716;DHT22;11525;51.152;4.456;2023-06-22T02:25:00;19.70;99.90
22716;DHT22;11525;51.152;4.456;2023-06-22T02:27:26;19.60;99.90
22716;DHT22;11525;51.152;4.456;2023-06-22T02:29:51;19.60;99.90
22716;DHT22;11525;51.152;4.456;2023-06-22T02:32:17;19.60;99.90
22716;DHT22;11525;51.152;4.456;2023-06-22T02:37:23;19.50;99.90
22716;DHT22;11525;51.152;4.456;2023-06-22T02:39:50;19.50;99.90
22716;DHT22;11525;51.152;4.456;2023-06-22T02:48:33;19.30;99.90
22716;DHT22;11525;51.152;4.456;2023-06-22T02:51:02;19.20;99.90
22716;DHT22;11525;51.152;4.456;2023-06-22T02:53:33;19.10;99.90
22716;DHT22;11525;51.152;4.456;2023-06-22T02:56:01;19.10;99.90
22716;DHT22;11525;51.152;4.456;2023-06-22T02:58:31;19.10;99.90
22716;DHT22;11525;51.152;4.456;2023-06-22T03:01:05;19.10;99.90
22716;DHT22;11525;51.152;4.456;2023-06-22T03:03:31;19.10;99.90
22716;DHT22;11525;51.152;4.456;2023-06-22T03:05:57;19.10;99.90
22716;DHT22;11525;51.152;4.456;2023-06-22T03:08:23;19.10;99.90
22716;DHT22;11525;51.152;4.456;2023-06-22T03:10:52;19.10;99.90
22716;DHT22;11525;51.152;4.456;2023-06-22T03:16:04;19.10;99.90
22716;DHT22;11525;51.152;4.456;2023-06-22T03:18:30;19.10;99.90
22716;DHT22;11525;51.152;4.456;2023-06-22T03:20:55;19.00;99.90
22716;DHT22;11525;51.152;4.456;2023-06-22T03:23:21;19.00;99.90
22716;DHT22;11525;51.152;4.456;2023-06-22T03:25:47;19.00;99.90
22716;DHT22;11525;51.152;4.456;2023-06-22T03:28:13;19.00;99.90
22716;DHT22;11525;51.152;4.456;2023-06-22T03:30:39;18.90;99.90
22716;DHT22;11525;51.152;4.456;2023-06-22T03:33:05;19.00;99.90
22716;DHT22;11525;51.152;4.456;2023-06-22T03:35:30;18.80;99.90
22716;DHT22;11525;51.152;4.456;2023-06-22T03:37:56;18.70;99.90
22716;DHT22;11525;51.152;4.456;2023-06-22T03:40:22;18.80;99.90
22716;DHT22;11525;51.152;4.456;2023-06-22T03:42:48;18.80;99.90
22716;DHT22;11525;51.152;4.456;2023-06-22T03:45:14;18.90;99.90
22716;DHT22;11525;51.152;4.456;2023-06-22T03:47:41;18.80;99.90
22716;DHT22;11525;51.152;4.456;2023-06-22T03:50:08;18.90;99.90
22716;DHT22;11525;51.152;4.456;2023-06-22T03:52:34;19.00;99.90
22716;DHT22;11525;51.152;4.456;2023-06-22T03:55:00;19.00;99.90
22716;DHT22;11525;51.152;4.456;2023-06-22T03:57:26;19.00;99.90
22716;DHT22;11525;51.152;4.456;2023-06-22T03:59:53;19.00;99.90
22716;DHT22;11525;51.152;4.456;2023-06-22T04:02:22;18.90;99.90
22716;DHT22;11525;51.152;4.456;2023-06-22T04:04:48;18.80;99.90
22716;DHT22;11525;51.152;4.456;2023-06-22T04:07:13;18.80;99.90
22716;DHT22;11525;51.152;4.456;2023-06-22T04:09:39;18.90;99.90
22716;DHT22;11525;51.152;4.456;2023-06-22T04:12:05;18.90;99.90
22716;DHT22;11525;51.152;4.456;2023-06-22T04:14:31;18.90;99.90
22716;DHT22;11525;51.152;4.456;2023-06-22T04:16:58;18.90;99.90
22716;DHT22;11525;51.152;4.456;2023-06-22T04:19:29;18.90;99.90
22716;DHT22;11525;51.152;4.456;2023-06-22T04:21:55;19.10;99.90
22716;DHT22;11525;51.152;4.456;2023-06-22T04:24:21;19.10;99.90
22716;DHT22;11525;51.152;4.456;2023-06-22T04:26:46;19.10;99.90
22716;DHT22;11525;51.152;4.456;2023-06-22T04:29:13;19.10;99.90
22716;DHT22;11525;51.152;4.456;2023-06-22T04:31:40;19.20;99.90
22716;DHT22;11525;51.152;4.456;2023-06-22T04:34:07;19.20;99.90
22716;DHT22;11525;51.152;4.456;2023-06-22T04:36:42;19.30;99.90
22716;DHT22;11525;51.152;4.456;2023-06-22T04:39:10;19.40;99.90
22716;DHT22;11525;51.152;4.456;2023-06-22T04:41:36;19.50;99.90
22716;DHT22;11525;51.152;4.456;2023-06-22T04:44:18;19.40;99.90
22716;DHT22;11525;51.152;4.456;2023-06-22T04:47:02;19.40;99.90
22716;DHT22;11525;51.152;4.456;2023-06-22T04:49:34;19.50;99.90
22716;DHT22;11525;51.152;4.456;2023-06-22T04:52:07;19.50;99.90
22716;DHT22;11525;51.152;4.456;2023-06-22T04:54:33;19.50;99.90
22716;DHT22;11525;51.152;4.456;2023-06-22T04:57:02;19.60;99.90
22716;DHT22;11525;51.152;4.456;2023-06-22T04:59:30;19.70;99.90
22716;DHT22;11525;51.152;4.456;2023-06-22T05:01:57;19.70;99.90
22716;DHT22;11525;51.152;4.456;2023-06-22T05:04:24;19.70;99.90
22716;DHT22;11525;51.152;4.456;2023-06-22T05:06:51;19.70;99.90
22716;DHT22;11525;51.152;4.456;2023-06-22T05:09:17;20.00;99.90
22716;DHT22;11525;51.152;4.456;2023-06-22T05:11:46;20.10;99.90
22716;DHT22;11525;51.152;4.456;2023-06-22T05:14:12;20.40;99.90
22716;DHT22;11525;51.152;4.456;2023-06-22T05:16:38;20.70;99.90
22716;DHT22;11525;51.152;4.456;2023-06-22T05:19:08;21.00;99.90
22716;DHT22;11525;51.152;4.456;2023-06-22T05:21:37;21.10;99.90
22716;DHT22;11525;51.152;4.456;2023-06-22T05:24:03;21.30;99.90
22716;DHT22;11525;51.152;4.456;2023-06-22T05:26:30;21.20;99.90
22716;DHT22;11525;51.152;4.456;2023-06-22T05:28:56;21.40;99.90
22716;DHT22;11525;51.152;4.456;2023-06-22T05:31:26;21.50;99.90
22716;DHT22;11525;51.152;4.456;2023-06-22T05:33:53;21.70;99.90
22716;DHT22;11525;51.152;4.456;2023-06-22T05:36:22;21.80;99.90
22716;DHT22;11525;51.152;4.456;2023-06-22T05:38:52;21.60;99.90
22716;DHT22;11525;51.152;4.456;2023-06-22T05:41:23;21.60;99.90
22716;DHT22;11525;51.152;4.456;2023-06-22T05:43:54;21.60;99.90
22716;DHT22;11525;51.152;4.456;2023-06-22T05:46:23;21.40;99.90
22716;DHT22;11525;51.152;4.456;2023-06-22T05:48:49;21.50;99.90
22716;DHT22;11525;51.152;4.456;2023-06-22T05:51:14;21.60;99.90
22716;DHT22;11525;51.152;4.456;2023-06-22T05:57:05;22.00;99.90
22716;DHT22;11525;51.152;4.456;2023-06-22T05:59:43;22.00;99.90
22716;DHT22;11525;51.152;4.456;2023-06-22T06:02:09;22.00;99.90
22716;DHT22;11525;51.152;4.456;2023-06-22T06:04:35;21.60;99.90
22716;DHT22;11525;51.152;4.456;2023-06-22T06:09:39;21.70;99.90
22716;DHT22;11525;51.152;4.456;2023-06-22T06:15:23;22.00;99.90
22716;DHT22;11525;51.152;4.456;2023-06-22T06:17:51;21.90;99.90
22716;DHT22;11525;51.152;4.456;2023-06-22T06:20:22;22.00;99.90
22716;DHT22;11525;51.152;4.456;2023-06-22T06:22:49;21.90;99.90
22716;DHT22;11525;51.152;4.456;2023-06-22T06:25:16;21.90;99.90
22716;DHT22;11525;51.152;4.456;2023-06-22T06:27:43;21.90;99.90
22716;DHT22;11525;51.152;4.456;2023-06-22T06:30:13;21.90;99.90
22716;DHT22;11525;51.152;4.456;2023-06-22T06:32:41;21.90;99.90
22716;DHT22;11525;51.152;4.456;2023-06-22T06:35:08;21.80;99.90
22716;DHT22;11525;51.152;4.456;2023-06-22T06:37:42;21.80;99.90
22716;DHT22;11525;51.152;4.456;2023-06-22T06:40:12;21.60;99.90
22716;DHT22;11525;51.152;4.456;2023-06-22T06:42:42;21.40;99.90
22716;DHT22;11525;51.152;4.456;2023-06-22T06:45:11;21.40;99.90
22716;DHT22;11525;51.152;4.456;2023-06-22T06:47:37;21.40;99.90
22716;DHT22;11525;51.152;4.456;2023-06-22T06:50:05;21.50;99.90
22716;DHT22;11525;51.152;4.456;2023-06-22T06:52:30;21.60;99.90
22716;DHT22;11525;51.152;4.456;2023-06-22T06:54:56;21.50;99.90
22716;DHT22;11525;51.152;4.456;2023-06-22T06:57:22;21.60;99.90
22716;DHT22;11525;51.152;4.456;2023-06-22T06:59:48;21.80;99.90
22716;DHT22;11525;51.152;4.456;2023-06-22T07:02:15;21.80;99.90
22716;DHT22;11525;51.152;4.456;2023-06-22T07:04:41;21.90;99.90
22716;DHT22;11525;51.152;4.456;2023-06-22T07:07:07;21.90;99.90
22716;DHT22;11525;51.152;4.456;2023-06-22T07:09:33;21.80;99.90
22716;DHT22;11525;51.152;4.456;2023-06-22T07:11:58;21.70;99.90
22716;DHT22;11525;51.152;4.456;2023-06-22T07:14:24;21.50;99.90
22716;DHT22;11525;51.152;4.456;2023-06-22T07:16:53;21.50;99.90
22716;DHT22;11525;51.152;4.456;2023-06-22T07:19:25;21.40;99.90
22716;DHT22;11525;51.152;4.456;2023-06-22T07:21:52;21.60;99.90
22716;DHT22;11525;51.152;4.456;2023-06-22T07:24:22;21.50;99.90
22716;DHT22;11525;51.152;4.456;2023-06-22T07:26:48;21.40;99.90
22716;DHT22;11525;51.152;4.456;2023-06-22T07:29:17;21.40;99.90
22716;DHT22;11525;51.152;4.456;2023-06-22T07:31:42;21.50;99.90
22716;DHT22;11525;51.152;4.456;2023-06-22T07:34:08;21.50;99.90
22716;DHT22;11525;51.152;4.456;2023-06-22T07:36:34;21.60;99.90
22716;DHT22;11525;51.152;4.456;2023-06-22T07:39:02;21.50;99.90
22716;DHT22;11525;51.152;4.456;2023-06-22T07:41:28;21.40;99.90
22716;DHT22;11525;51.152;4.456;2023-06-22T07:43:54;21.20;99.90
22716;DHT22;11525;51.152;4.456;2023-06-22T07:46:20;21.20;99.90
22716;DHT22;11525;51.152;4.456;2023-06-22T07:48:45;21.30;99.90
22716;DHT22;11525;51.152;4.456;2023-06-22T07:51:11;21.50;99.90
22716;DHT22;11525;51.152;4.456;2023-06-22T07:53:44;21.70;99.90
22716;DHT22;11525;51.152;4.456;2023-06-22T07:56:13;22.00;99.90
22716;DHT22;11525;51.152;4.456;2023-06-22T07:58:44;22.10;99.90
22716;DHT22;11525;51.152;4.456;2023-06-22T08:01:11;22.10;99.90
22716;DHT22;11525;51.152;4.456;2023-06-22T08:03:37;22.20;99.90
22716;DHT22;11525;51.152;4.456;2023-06-22T08:06:05;22.10;99.90
22716;DHT22;11525;51.152;4.456;2023-06-22T08:08:31;22.10;99.90
22716;DHT22;11525;51.152;4.456;2023-06-22T08:10:57;22.00;99.90
22716;DHT22;11525;51.152;4.456;2023-06-22T08:13:23;22.10;99.90
22716;DHT22;11525;51.152;4.456;2023-06-22T08:15:49;22.10;99.90
22716;DHT22;11525;51.152;4.456;2023-06-22T08:18:15;21.80;99.90
22716;DHT22;11525;51.152;4.456;2023-06-22T08:20:42;21.70;99.90
22716;DHT22;11525;51.152;4.456;2023-06-22T08:23:08;21.60;99.90
22716;DHT22;11525;51.152;4.456;2023-06-22T08:25:34;21.40;99.90
22716;DHT22;11525;51.152;4.456;2023-06-22T08:28:01;21.50;99.90
22716;DHT22;11525;51.152;4.456;2023-06-22T08:30:27;21.60;99.90
22716;DHT22;11525;51.152;4.456;2023-06-22T08:32:53;21.60;99.90
22716;DHT22;11525;51.152;4.456;2023-06-22T08:35:20;21.70;99.90
22716;DHT22;11525;51.152;4.456;2023-06-22T08:37:46;21.90;99.90
22716;DHT22;11525;51.152;4.456;2023-06-22T08:40:18;21.90;99.90
22716;DHT22;11525;51.152;4.456;2023-06-22T08:42:46;21.90;99.90
22716;DHT22;11525;51.152;4.456;2023-06-22T08:45:12;22.10;99.90
22716;DHT22;11525;51.152;4.456;2023-06-22T08:47:38;22.30;99.90
22716;DHT22;11525;51.152;4.456;2023-06-22T08:50:08;22.50;99.90
22716;DHT22;11525;51.152;4.456;2023-06-22T08:52:35;22.50;99.90
22716;DHT22;11525;51.152;4.456;2023-06-22T08:55:01;22.70;99.90
22716;DHT22;11525;51.152;4.456;2023-06-22T08:57:27;22.70;99.90
22716;DHT22;11525;51.152;4.456;2023-06-22T08:59:53;22.80;99.90
22716;DHT22;11525;51.152;4.456;2023-06-22T09:02:19;22.80;99.90
22716;DHT22;11525;51.152;4.456;2023-06-22T09:04:48;22.60;99.90
22716;DHT22;11525;51.152;4.456;2023-06-22T09:07:15;22.50;99.90
22716;DHT22;11525;51.152;4.456;2023-06-22T09:09:47;22.50;99.90
22716;DHT22;11525;51.152;4.456;2023-06-22T09:12:13;22.30;99.90
22716;DHT22;11525;51.152;4.456;2023-06-22T09:14:39;22.00;99.90
22716;DHT22;11525;51.152;4.456;2023-06-22T09:17:05;22.00;99.90
22716;DHT22;11525;51.152;4.456;2023-06-22T09:19:31;22.00;99.90
22716;DHT22;11525;51.152;4.456;2023-06-22T09:21:56;22.10;99.90
22716;DHT22;11525;51.152;4.456;2023-06-22T09:24:22;22.10;99.90
22716;DHT22;11525;51.152;4.456;2023-06-22T09:26:48;22.10;99.90
22716;DHT22;11525;51.152;4.456;2023-06-22T09:29:14;22.10;99.90
22716;DHT22;11525;51.152;4.456;2023-06-22T09:31:39;22.10;99.90
22716;DHT22;11525;51.152;4.456;2023-06-22T09:34:06;22.00;99.90
22716;DHT22;11525;51.152;4.456;2023-06-22T09:36:32;22.00;99.90
22716;DHT22;11525;51.152;4.456;2023-06-22T09:38:57;22.10;99.90
22716;DHT22;11525;51.152;4.456;2023-06-22T09:41:24;22.20;99.90
22716;DHT22;11525;51.152;4.456;2023-06-22T09:43:50;22.10;99.90
22716;DHT22;11525;51.152;4.456;2023-06-22T09:46:16;22.10;99.90
22716;DHT22;11525;51.152;4.456;2023-06-22T09:48:42;22.20;99.90
22716;DHT22;11525;51.152;4.456;2023-06-22T09:51:08;22.30;99.90
22716;DHT22;11525;51.152;4.456;2023-06-22T09:53:34;22.30;99.90
22716;DHT22;11525;51.152;4.456;2023-06-22T09:56:01;22.40;99.90
22716;DHT22;11525;51.152;4.456;2023-06-22T09:58:27;22.40;99.90
22716;DHT22;11525;51.152;4.456;2023-06-22T10:00:53;22.50;99.90
22716;DHT22;11525;51.152;4.456;2023-06-22T10:03:20;22.40;99.90
22716;DHT22;11525;51.152;4.456;2023-06-22T10:05:46;22.50;99.90
22716;DHT22;11525;51.152;4.456;2023-06-22T10:08:12;22.50;99.90
22716;DHT22;11525;51.152;4.456;2023-06-22T10:10:38;22.50;99.90
22716;DHT22;11525;51.152;4.456;2023-06-22T10:13:09;22.50;99.90
22716;DHT22;11525;51.152;4.456;2023-06-22T10:15:38;22.40;99.90
22716;DHT22;11525;51.152;4.456;2023-06-22T10:18:04;22.20;99.90
22716;DHT22;11525;51.152;4.456;2023-06-22T10:20:32;22.30;99.90
22716;DHT22;11525;51.152;4.456;2023-06-22T10:22:58;22.20;99.90
22716;DHT22;11525;51.152;4.456;2023-06-22T10:25:24;22.00;99.90
22716;DHT22;11525;51.152;4.456;2023-06-22T10:27:51;22.00;99.90
22716;DHT22;11525;51.152;4.456;2023-06-22T10:30:17;22.00;99.90
22716;DHT22;11525;51.152;4.456;2023-06-22T10:32:43;21.90;99.90
22716;DHT22;11525;51.152;4.456;2023-06-22T10:35:09;21.90;99.90
22716;DHT22;11525;51.152;4.456;2023-06-22T10:37:39;21.80;99.90
22716;DHT22;11525;51.152;4.456;2023-06-22T10:40:05;21.40;99.90
22716;DHT22;11525;51.152;4.456;2023-06-22T10:42:31;21.00;99.90
22716;DHT22;11525;51.152;4.456;2023-06-22T10:44:57;20.60;99.90
22716;DHT22;11525;51.152;4.456;2023-06-22T10:47:22;20.00;99.90
22716;DHT22;11525;51.152;4.456;2023-06-22T10:49:48;19.50;99.90
22716;DHT22;11525;51.152;4.456;2023-06-22T10:52:14;19.30;99.90
22716;DHT22;11525;51.152;4.456;2023-06-22T10:54:41;19.10;99.90
22716;DHT22;11525;51.152;4.456;2023-06-22T10:57:06;19.10;99.90
22716;DHT22;11525;51.152;4.456;2023-06-22T10:59:32;19.10;99.90
22716;DHT22;11525;51.152;4.456;2023-06-22T11:01:58;19.20;99.90
22716;DHT22;11525;51.152;4.456;2023-06-22T11:04:24;19.30;99.90
22716;DHT22;11525;51.152;4.456;2023-06-22T11:06:50;19.30;99.90
22716;DHT22;11525;51.152;4.456;2023-06-22T11:09:16;19.30;99.90
22716;DHT22;11525;51.152;4.456;2023-06-22T11:11:49;19.30;99.90
22716;DHT22;11525;51.152;4.456;2023-06-22T11:14:16;19.40;99.90
22716;DHT22;11525;51.152;4.456;2023-06-22T11:16:41;19.50;99.90
22716;DHT22;11525;51.152;4.456;2023-06-22T11:19:08;19.50;99.90
22716;DHT22;11525;51.152;4.456;2023-06-22T11:21:33;19.40;99.90
22716;DHT22;11525;51.152;4.456;2023-06-22T11:23:59;19.50;99.90
22716;DHT22;11525;51.152;4.456;2023-06-22T11:26:26;19.50;99.90
22716;DHT22;11525;51.152;4.456;2023-06-22T11:28:54;19.30;99.90
22716;DHT22;11525;51.152;4.456;2023-06-22T11:31:20;19.20;99.90
22716;DHT22;11525;51.152;4.456;2023-06-22T11:33:49;19.10;99.90
22716;DHT22;11525;51.152;4.456;2023-06-22T11:36:15;19.20;99.90
22716;DHT22;11525;51.152;4.456;2023-06-22T11:38:42;19.30;99.90
22716;DHT22;11525;51.152;4.456;2023-06-22T11:41:09;19.40;99.90
22716;DHT22;11525;51.152;4.456;2023-06-22T11:43:35;19.40;99.90
22716;DHT22;11525;51.152;4.456;2023-06-22T11:46:04;19.40;99.90
22716;DHT22;11525;51.152;4.456;2023-06-22T11:48:30;19.50;99.90
22716;DHT22;11525;51.152;4.456;2023-06-22T11:50:57;19.50;99.90
22716;DHT22;11525;51.152;4.456;2023-06-22T11:53:24;19.50;99.90
22716;DHT22;11525;51.152;4.456;2023-06-22T11:55:50;19.50;99.90
22716;DHT22;11525;51.152;4.456;2023-06-22T11:58:16;19.40;99.90
22716;DHT22;11525;51.152;4.456;2023-06-22T12:00:42;19.30;99.90
22716;DHT22;11525;51.152;4.456;2023-06-22T12:03:08;19.30;99.90
22716;DHT22;11525;51.152;4.456;2023-06-22T12:05:34;19.30;99.90
22716;DHT22;11525;51.152;4.456;2023-06-22T12:08:00;19.40;99.90
22716;DHT22;11525;51.152;4.456;2023-06-22T12:10:26;19.30;99.90
22716;DHT22;11525;51.152;4.456;2023-06-22T12:12:54;19.30;99.90
22716;DHT22;11525;51.152;4.456;2023-06-22T12:15:20;19.20;99.90
22716;DHT22;11525;51.152;4.456;2023-06-22T12:17:46;19.10;99.90
22716;DHT22;11525;51.152;4.456;2023-06-22T12:20:13;19.00;99.90
22716;DHT22;11525;51.152;4.456;2023-06-22T12:22:40;19.10;99.90
22716;DHT22;11525;51.152;4.456;2023-06-22T12:25:07;19.00;99.90
22716;DHT22;11525;51.152;4.456;2023-06-22T12:27:33;19.00;99.90
22716;DHT22;11525;51.152;4.456;2023-06-22T12:29:58;18.80;99.90
22716;DHT22;11525;51.152;4.456;2023-06-22T12:32:24;18.60;99.90
22716;DHT22;11525;51.152;4.456;2023-06-22T12:34:51;18.60;99.90
22716;DHT22;11525;51.152;4.456;2023-06-22T12:37:17;18.50;99.90
22716;DHT22;11525;51.152;4.456;2023-06-22T12:39:43;18.40;99.90
22716;DHT22;11525;51.152;4.456;2023-06-22T12:42:12;18.30;99.90
22716;DHT22;11525;51.152;4.456;2023-06-22T12:44:38;18.30;99.90
22716;DHT22;11525;51.152;4.456;2023-06-22T12:47:05;18.30;99.90
22716;DHT22;11525;51.152;4.456;2023-06-22T12:49:31;18.40;99.90
22716;DHT22;11525;51.152;4.456;2023-06-22T12:51:57;18.40;99.90
22716;DHT22;11525;51.152;4.456;2023-06-22T12:54:23;18.40;99.90
22716;DHT22;11525;51.152;4.456;2023-06-22T12:56:59;18.40;99.90
22716;DHT22;11525;51.152;4.456;2023-06-22T12:59:25;18.50;99.90
22716;DHT22;11525;51.152;4.456;2023-06-22T13:01:51;18.50;99.90
22716;DHT22;11525;51.152;4.456;2023-06-22T13:04:16;18.60;99.90
22716;DHT22;11525;51.152;4.456;2023-06-22T13:06:44;18.70;99.90
22716;DHT22;11525;51.152;4.456;2023-06-22T13:09:13;18.60;99.90
22716;DHT22;11525;51.152;4.456;2023-06-22T13:11:39;18.60;99.90
22716;DHT22;11525;51.152;4.456;2023-06-22T13:14:05;18.80;99.90
22716;DHT22;11525;51.152;4.456;2023-06-22T13:16:30;18.80;99.90
22716;DHT22;11525;51.152;4.456;2023-06-22T13:18:56;18.90;99.90
22716;DHT22;11525;51.152;4.456;2023-06-22T13:21:22;18.80;99.90
22716;DHT22;11525;51.152;4.456;2023-06-22T13:23:47;18.80;99.90
22716;DHT22;11525;51.152;4.456;2023-06-22T13:26:13;18.80;99.90
22716;DHT22;11525;51.152;4.456;2023-06-22T13:28:39;18.80;99.90
22716;DHT22;11525;51.152;4.456;2023-06-22T13:31:04;18.80;99.90
22716;DHT22;11525;51.152;4.456;2023-06-22T13:33:31;18.80;99.90
22716;DHT22;11525;51.152;4.456;2023-06-22T13:35:56;18.80;99.90
22716;DHT22;11525;51.152;4.456;2023-06-22T13:38:23;18.70;99.90
22716;DHT22;11525;51.152;4.456;2023-06-22T13:40:49;18.80;99.90
22716;DHT22;11525;51.152;4.456;2023-06-22T13:43:15;18.70;99.90
22716;DHT22;11525;51.152;4.456;2023-06-22T13:45:42;18.80;99.90
22716;DHT22;11525;51.152;4.456;2023-06-22T13:48:08;18.70;99.90
22716;DHT22;11525;51.152;4.456;2023-06-22T13:50:34;18.60;99.90
22716;DHT22;11525;51.152;4.456;2023-06-22T13:53:00;18.70;99.90
22716;DHT22;11525;51.152;4.456;2023-06-22T13:55:26;18.70;99.90
22716;DHT22;11525;51.152;4.456;2023-06-22T13:57:52;18.80;99.90
22716;DHT22;11525;51.152;4.456;2023-06-22T14:00:18;18.80;99.90
22716;DHT22;11525;51.152;4.456;2023-06-22T14:02:44;18.80;99.90
22716;DHT22;11525;51.152;4.456;2023-06-22T14:05:12;18.90;99.90
22716;DHT22;11525;51.152;4.456;2023-06-22T14:07:41;18.90;99.90
22716;DHT22;11525;51.152;4.456;2023-06-22T14:10:07;19.00;99.90
22716;DHT22;11525;51.152;4.456;2023-06-22T14:12:33;19.10;99.90
22716;DHT22;11525;51.152;4.456;2023-06-22T14:15:00;19.10;99.90
22716;DHT22;11525;51.152;4.456;2023-06-22T14:17:26;19.20;99.90
22716;DHT22;11525;51.152;4.456;2023-06-22T14:19:52;19.10;99.90
22716;DHT22;11525;51.152;4.456;2023-06-22T14:22:21;19.10;99.90
22716;DHT22;11525;51.152;4.456;2023-06-22T14:24:48;19.10;99.90
22716;DHT22;11525;51.152;4.456;2023-06-22T14:27:14;19.20;99.90
22716;DHT22;11525;51.152;4.456;2023-06-22T14:29:40;19.20;99.90
22716;DHT22;11525;51.152;4.456;2023-06-22T14:32:07;19.30;99.90
22716;DHT22;11525;51.152;4.456;2023-06-22T14:34:33;19.30;99.90
22716;DHT22;11525;51.152;4.456;2023-06-22T14:37:02;19.30;99.90
22716;DHT22;11525;51.152;4.456;2023-06-22T14:39:27;19.30;99.90
22716;DHT22;11525;51.152;4.456;2023-06-22T14:41:53;19.30;99.90
22716;DHT22;11525;51.152;4.456;2023-06-22T14:44:19;19.30;99.90
22716;DHT22;11525;51.152;4.456;2023-06-22T14:46:45;19.30;99.90
22716;DHT22;11525;51.152;4.456;2023-06-22T14:49:11;19.30;99.90
22716;DHT22;11525;51.152;4.456;2023-06-22T14:51:36;19.50;99.90
22716;DHT22;11525;51.152;4.456;2023-06-22T14:54:02;19.60;99.90
22716;DHT22;11525;51.152;4.456;2023-06-22T14:56:28;19.70;99.90
22716;DHT22;11525;51.152;4.456;2023-06-22T14:58:54;19.60;99.90
22716;DHT22;11525;51.152;4.456;2023-06-22T15:01:20;19.70;99.90
22716;DHT22;11525;51.152;4.456;2023-06-22T15:03:46;19.70;99.90
22716;DHT22;11525;51.152;4.456;2023-06-22T15:06:12;19.60;99.90
22716;DHT22;11525;51.152;4.456;2023-06-22T15:08:38;19.70;99.90
22716;DHT22;11525;51.152;4.456;2023-06-22T15:11:04;19.70;99.90
22716;DHT22;11525;51.152;4.456;2023-06-22T15:13:31;19.60;99.90
22716;DHT22;11525;51.152;4.456;2023-06-22T15:16:03;19.70;99.90
22716;DHT22;11525;51.152;4.456;2023-06-22T15:18:29;19.70;99.90
22716;DHT22;11525;51.152;4.456;2023-06-22T15:20:55;19.60;99.90
22716;DHT22;11525;51.152;4.456;2023-06-22T15:23:20;19.70;99.90
22716;DHT22;11525;51.152;4.456;2023-06-22T15:25:46;19.70;99.90
22716;DHT22;11525;51.152;4.456;2023-06-22T15:28:12;19.70;99.90
22716;DHT22;11525;51.152;4.456;2023-06-22T15:30:38;19.60;99.90
22716;DHT22;11525;51.152;4.456;2023-06-22T15:33:04;19.60;99.90
22716;DHT22;11525;51.152;4.456;2023-06-22T15:35:30;19.70;99.90
22716;DHT22;11525;51.152;4.456;2023-06-22T15:37:56;19.70;99.90
22716;DHT22;11525;51.152;4.456;2023-06-22T15:40:22;19.70;99.90
22716;DHT22;11525;51.152;4.456;2023-06-22T15:42:50;19.70;99.90
22716;DHT22;11525;51.152;4.456;2023-06-22T15:45:16;19.70;99.90
22716;DHT22;11525;51.152;4.456;2023-06-22T15:47:41;19.70;99.90
22716;DHT22;11525;51.152;4.456;2023-06-22T15:50:07;19.60;99.90
22716;DHT22;11525;51.152;4.456;2023-06-22T15:52:33;19.60;99.90
22716;DHT22;11525;51.152;4.456;2023-06-22T15:54:59;19.60;99.90